createdAt,value
2022-09-27T00:01:10.981Z,101190.22
2022-09-27T00:03:38.518Z,101194.47
2022-09-27T00:06:10.896Z,101183.09
2022-09-27T00:08:37.928Z,101187.72
2022-09-27T00:11:06.350Z,101195.69
2022-09-27T00:13:33.131Z,101206.72
2022-09-27T00:16:03.231Z,101194.13
2022-09-27T00:18:29.702Z,101181.63
2022-09-27T00:20:56.144Z,101184.28
2022-09-27T00:23:22.651Z,101179.94
2022-09-27T00:25:59.270Z,101183.97
2022-09-27T00:28:26.167Z,101178.41
2022-09-27T00:30:53.998Z,101180.88
2022-09-27T00:33:20.930Z,101183.44
2022-09-27T00:35:47.662Z,101181.06
2022-09-27T00:38:14.913Z,101187.28
2022-09-27T00:40:41.922Z,101183.44
2022-09-27T00:43:23.224Z,101177.81
2022-09-27T00:46:01.852Z,101177.19
2022-09-27T00:48:31.505Z,101171.66
2022-09-27T00:51:01.807Z,101189.16
2022-09-27T00:53:34.759Z,101193.19
2022-09-27T00:56:06.592Z,101184.13
2022-09-27T00:58:36.769Z,101178.41
2022-09-27T01:01:07.174Z,101180.03
2022-09-27T01:03:52.514Z,101182.53
2022-09-27T01:06:21.275Z,101170.44
2022-09-27T01:08:48.115Z,101184.81
2022-09-27T01:11:26.270Z,101174.03
2022-09-27T01:14:30.147Z,101162.75
2022-09-27T01:17:02.625Z,101162.66
2022-09-27T01:19:47.148Z,101165.63
2022-09-27T01:22:55.941Z,101181.56
2022-09-27T01:25:56.126Z,101183.25
2022-09-27T01:28:45.964Z,101186.66
2022-09-27T01:31:19.734Z,101185.22
2022-09-27T01:34:03.686Z,101199.16
2022-09-27T01:36:56.695Z,101192.16
2022-09-27T01:39:32.183Z,101188.75
2022-09-27T01:42:24.946Z,101204.31
2022-09-27T01:45:01.033Z,101215.09
2022-09-27T01:47:37.715Z,101196.53
2022-09-27T01:50:16.722Z,101200.22
2022-09-27T01:52:50.325Z,101199.50
2022-09-27T01:55:19.548Z,101194.81
2022-09-27T01:58:06.505Z,101193.72
2022-09-27T02:00:34.764Z,101198.94
2022-09-27T02:03:11.732Z,101209.56
2022-09-27T02:05:45.116Z,101221.72
2022-09-27T02:08:24.079Z,101232.03
2022-09-27T02:10:54.727Z,101211.34
2022-09-27T02:13:33.421Z,101227.41
2022-09-27T02:16:24.123Z,101229.09
2022-09-27T02:19:09.319Z,101232.22
2022-09-27T02:21:45.097Z,101233.56
2022-09-27T02:24:19.511Z,101222.09
2022-09-27T02:26:49.479Z,101225.53
2022-09-27T02:29:24.733Z,101227.06
2022-09-27T02:31:51.786Z,101229.91
2022-09-27T02:34:29.243Z,101216.13
2022-09-27T02:36:55.688Z,101228.69
2022-09-27T02:39:23.071Z,101228.88
2022-09-27T02:41:50.016Z,101230.84
2022-09-27T02:44:17.396Z,101234.25
2022-09-27T02:46:52.932Z,101226.91
2022-09-27T02:49:42.340Z,101222.09
2022-09-27T02:52:20.746Z,101233.03
2022-09-27T02:55:03.247Z,101226.63
2022-09-27T02:57:58.408Z,101227.72
2022-09-27T03:00:42.103Z,101231.94
2022-09-27T03:03:36.714Z,101234.75
2022-09-27T03:06:16.372Z,101238.09
2022-09-27T03:08:44.126Z,101231.34
2022-09-27T03:11:10.551Z,101224.47
2022-09-27T03:13:55.885Z,101234.94
2022-09-27T03:16:25.396Z,101238.19
2022-09-27T03:18:51.855Z,101240.19
2022-09-27T03:21:18.279Z,101235.88
2022-09-27T03:23:44.722Z,101215.56
2022-09-27T03:26:13.209Z,101207.59
2022-09-27T03:28:39.832Z,101216.03
2022-09-27T03:31:06.347Z,101213.72
2022-09-27T03:33:33.533Z,101202.41
2022-09-27T03:36:00.093Z,101207.66
2022-09-27T03:38:26.527Z,101209.72
2022-09-27T03:40:53.121Z,101213.78
2022-09-27T03:43:19.585Z,101197.00
2022-09-27T03:45:46.145Z,101188.91
2022-09-27T03:48:12.702Z,101197.81
2022-09-27T03:50:39.191Z,101192.66
2022-09-27T03:53:05.834Z,101189.22
2022-09-27T03:55:32.360Z,101186.81
2022-09-27T03:57:58.800Z,101179.47
2022-09-27T04:00:26.049Z,101182.38
2022-09-27T04:02:52.555Z,101172.19
2022-09-27T04:05:19.203Z,101159.78
2022-09-27T04:07:48.290Z,101145.72
2022-09-27T04:10:15.898Z,101162.28
2022-09-27T04:12:42.580Z,101159.97
2022-09-27T04:15:09.710Z,101164.31
2022-09-27T04:17:36.169Z,101170.75
2022-09-27T04:20:03.686Z,101162.88
2022-09-27T04:22:30.331Z,101171.75
2022-09-27T04:24:56.771Z,101172.47
2022-09-27T04:27:23.331Z,101157.03
2022-09-27T04:29:49.806Z,101136.69
2022-09-27T04:32:16.222Z,101142.00
2022-09-27T04:35:01.416Z,101128.06
2022-09-27T04:37:28.123Z,101138.25
2022-09-27T04:39:54.542Z,101143.81
2022-09-27T04:42:20.963Z,101145.09
2022-09-27T04:44:47.905Z,101138.75
2022-09-27T04:47:14.467Z,101143.22
2022-09-27T04:49:40.864Z,101145.25
2022-09-27T04:52:07.311Z,101135.13
2022-09-27T04:54:33.783Z,101123.84
2022-09-27T04:57:00.227Z,101119.84
2022-09-27T04:59:27.658Z,101098.56
2022-09-27T05:01:54.084Z,101093.31
2022-09-27T05:04:20.551Z,101087.53
2022-09-27T05:06:46.979Z,101087.41
2022-09-27T05:09:13.455Z,101088.09
2022-09-27T05:11:39.906Z,101077.13
2022-09-27T05:14:06.581Z,101076.06
2022-09-27T05:16:34.314Z,101075.28
2022-09-27T05:19:00.812Z,101052.44
2022-09-27T05:21:27.491Z,101052.53
2022-09-27T05:23:54.202Z,101042.34
2022-09-27T05:26:20.919Z,101027.13
2022-09-27T05:28:47.433Z,101030.22
2022-09-27T05:31:14.418Z,101027.38
2022-09-27T05:33:41.274Z,101020.47
2022-09-27T05:36:09.408Z,101018.66
2022-09-27T05:38:36.014Z,101009.75
2022-09-27T05:41:04.091Z,100999.09
2022-09-27T05:43:30.919Z,101012.16
2022-09-27T05:45:58.629Z,101003.25
2022-09-27T05:48:25.190Z,100998.47
2022-09-27T05:50:51.773Z,101002.06
2022-09-27T05:53:18.722Z,100988.91
2022-09-27T05:55:45.151Z,100986.00
2022-09-27T05:58:16.207Z,100979.25
2022-09-27T06:00:43.673Z,100966.34
2022-09-27T06:03:12.983Z,100972.84
2022-09-27T06:05:40.427Z,100978.16
2022-09-27T06:08:10.476Z,100983.25
2022-09-27T06:10:38.258Z,100985.81
2022-09-27T06:13:12.155Z,100971.66
2022-09-27T06:15:40.993Z,100968.63
2022-09-27T06:18:18.031Z,100956.41
2022-09-27T06:20:45.268Z,100942.28
2022-09-27T06:23:18.359Z,100948.09
2022-09-27T06:25:46.623Z,100952.44
2022-09-27T06:28:14.103Z,100959.47
2022-09-27T06:30:43.004Z,100952.44
2022-09-27T06:33:12.966Z,100939.09
2022-09-27T06:35:40.201Z,100929.38
2022-09-27T06:38:10.983Z,100943.72
2022-09-27T06:40:37.612Z,100943.81
2022-09-27T06:43:09.232Z,100948.31
2022-09-27T06:45:37.311Z,100971.53
2022-09-27T06:48:08.731Z,100988.66
2022-09-27T06:50:37.419Z,101001.66
2022-09-27T06:53:06.152Z,101008.47
2022-09-27T06:55:32.809Z,101018.25
2022-09-27T06:58:20.172Z,101023.78
2022-09-27T07:00:52.742Z,101028.81
2022-09-27T07:03:20.579Z,101044.13
2022-09-27T07:05:58.943Z,101057.78
2022-09-27T07:08:28.580Z,101060.66
2022-09-27T07:10:56.669Z,101075.88
2022-09-27T07:13:23.111Z,101080.44
2022-09-27T07:15:49.594Z,101089.63
2022-09-27T07:18:16.022Z,101116.59
2022-09-27T07:20:42.482Z,101105.16
2022-09-27T07:23:10.635Z,101120.28
2022-09-27T07:25:37.134Z,101128.34
2022-09-27T07:28:06.367Z,101126.22
2022-09-27T07:30:33.594Z,101130.50
2022-09-27T07:33:02.028Z,101140.00
2022-09-27T07:35:28.605Z,101153.19
2022-09-27T07:37:56.756Z,101168.50
2022-09-27T07:40:24.121Z,101162.94
2022-09-27T07:42:58.147Z,101168.59
2022-09-27T07:45:25.712Z,101189.91
2022-09-27T07:47:52.330Z,101187.09
2022-09-27T07:50:19.365Z,101186.84
2022-09-27T07:52:50.201Z,101199.50
2022-09-27T07:55:17.850Z,101195.06
2022-09-27T07:57:45.508Z,101212.25
2022-09-27T08:00:15.091Z,101230.47
2022-09-27T08:02:43.302Z,101234.69
2022-09-27T08:05:11.570Z,101229.63
2022-09-27T08:07:39.551Z,101244.84
2022-09-27T08:10:09.542Z,101260.97
2022-09-27T08:12:36.924Z,101284.50
2022-09-27T08:15:04.615Z,101276.47
2022-09-27T08:17:33.084Z,101254.09
2022-09-27T08:20:00.232Z,101265.19
2022-09-27T08:22:26.730Z,101262.44
2022-09-27T08:24:53.159Z,101268.09
2022-09-27T08:27:19.643Z,101294.31
2022-09-27T08:29:47.395Z,101300.31
2022-09-27T08:32:14.144Z,101278.88
2022-09-27T08:34:40.606Z,101277.53
2022-09-27T08:37:07.015Z,101305.22
2022-09-27T08:39:33.617Z,101327.88
2022-09-27T08:42:41.286Z,101353.75
2022-09-27T08:45:24.718Z,101349.50
2022-09-27T08:47:56.114Z,101363.72
2022-09-27T08:50:30.180Z,101374.53
2022-09-27T08:53:08.617Z,101400.75
2022-09-27T08:55:44.151Z,101401.19
2022-09-27T08:58:21.046Z,101418.91
2022-09-27T09:00:51.929Z,101431.59
2022-09-27T09:03:21.007Z,101443.94
2022-09-27T09:06:10.361Z,101466.94
2022-09-27T09:08:52.038Z,101472.88
2022-09-27T09:11:56.083Z,101489.31
2022-09-27T09:14:41.758Z,101518.78
2022-09-27T09:17:24.504Z,101534.06
2022-09-27T09:20:11.250Z,101568.03
2022-09-27T09:23:06.524Z,101566.97
2022-09-27T09:26:01.320Z,101553.28
2022-09-27T09:28:47.264Z,101576.28
2022-09-27T09:31:16.474Z,101569.50
2022-09-27T09:33:58.103Z,101570.56
2022-09-27T09:36:44.384Z,101561.81
2022-09-27T09:39:20.204Z,101552.22
2022-09-27T09:42:02.167Z,101560.44
2022-09-27T09:44:54.154Z,101536.84
2022-09-27T09:48:01.858Z,101529.97
2022-09-27T09:50:43.386Z,101520.84
2022-09-27T09:53:34.867Z,101503.25
2022-09-27T09:56:07.181Z,101516.66
2022-09-27T09:58:39.471Z,101478.34
2022-09-27T10:01:18.752Z,101472.53
2022-09-27T10:03:46.187Z,101462.78
2022-09-27T10:06:14.445Z,101480.66
2022-09-27T10:08:41.704Z,101458.00
2022-09-27T10:11:20.263Z,101468.03
2022-09-27T10:13:47.447Z,101480.16
2022-09-27T10:16:17.023Z,101487.38
2022-09-27T10:18:49.678Z,101491.75
2022-09-27T10:21:27.203Z,101495.44
2022-09-27T10:24:17.295Z,101498.66
2022-09-27T10:26:47.120Z,101466.56
2022-09-27T10:29:19.649Z,101452.31
2022-09-27T10:31:48.358Z,101424.34
2022-09-27T10:34:27.595Z,101397.16
2022-09-27T10:37:06.399Z,101385.38
2022-09-27T10:39:33.192Z,101370.13
2022-09-27T10:41:59.768Z,101336.50
2022-09-27T10:44:28.985Z,101291.59
2022-09-27T10:47:01.740Z,101252.44
2022-09-27T10:49:32.714Z,101220.88
2022-09-27T10:52:02.472Z,101199.19
2022-09-27T10:54:32.257Z,101138.03
2022-09-27T10:57:13.997Z,101136.72
2022-09-27T10:59:43.350Z,101080.03
2022-09-27T11:02:22.787Z,100982.94
2022-09-27T11:05:15.389Z,100907.09
2022-09-27T11:07:53.442Z,100877.97
2022-09-27T11:10:36.363Z,100841.72
2022-09-27T11:13:21.574Z,100799.19
2022-09-27T11:15:54.166Z,100747.53
2022-09-27T11:18:29.780Z,100677.19
2022-09-27T11:21:14.205Z,100650.88
2022-09-27T11:23:58.120Z,100609.81
2022-09-27T11:26:38.743Z,100530.22
2022-09-27T11:29:28.053Z,100522.00
2022-09-27T11:31:54.933Z,100479.72
2022-09-27T11:34:39.707Z,100442.53
2022-09-27T11:37:41.530Z,100413.72
2022-09-27T11:40:32.880Z,100393.00
2022-09-27T11:43:40.927Z,100361.41
2022-09-27T11:46:40.312Z,100341.91
2022-09-27T11:49:11.041Z,100323.63
2022-09-27T11:51:54.131Z,100287.44
2022-09-27T11:54:39.107Z,100294.47
2022-09-27T11:57:18.716Z,100271.09
2022-09-27T12:00:13.197Z,100290.66
2022-09-27T12:02:45.921Z,100256.13
2022-09-27T12:05:25.315Z,100248.97
2022-09-27T12:08:09.241Z,100233.56
2022-09-27T12:10:39.511Z,100251.75
2022-09-27T12:13:10.509Z,100238.25
2022-09-27T12:15:42.269Z,100221.81
2022-09-27T12:18:26.291Z,100212.44
2022-09-27T12:20:53.706Z,100225.59
2022-09-27T12:23:36.422Z,100216.91
2022-09-27T12:26:34.515Z,100229.00
2022-09-27T12:29:26.054Z,100223.03
2022-09-27T12:32:17.767Z,100224.03
2022-09-27T12:35:01.448Z,100228.16
2022-09-27T12:37:43.746Z,100235.91
2022-09-27T12:40:21.589Z,100243.84
2022-09-27T12:42:55.655Z,100267.09
2022-09-27T12:45:50.726Z,100288.56
2022-09-27T12:48:36.750Z,100294.63
2022-09-27T12:51:11.882Z,100304.94
2022-09-27T12:54:00.687Z,100321.13
2022-09-27T12:56:38.354Z,100344.31
2022-09-27T12:59:17.537Z,100364.72
2022-09-27T13:02:09.026Z,100392.72
2022-09-27T13:04:56.870Z,100403.50
2022-09-27T13:07:37.609Z,100431.91
2022-09-27T13:10:24.779Z,100479.16
2022-09-27T13:12:54.627Z,100482.44
2022-09-27T13:15:27.804Z,100510.91
2022-09-27T13:17:59.818Z,100523.22
2022-09-27T13:20:35.616Z,100537.81
2022-09-27T13:23:03.623Z,100546.41
2022-09-27T13:26:04.091Z,100571.28
2022-09-27T13:28:31.768Z,100589.53
2022-09-27T13:31:00.178Z,100619.53
2022-09-27T13:33:29.601Z,100647.41
2022-09-27T13:36:22.391Z,100681.03
2022-09-27T13:39:14.288Z,100677.41
2022-09-27T13:41:46.722Z,100678.97
2022-09-27T13:44:40.476Z,100644.66
2022-09-27T13:47:13.156Z,100654.25
2022-09-27T13:49:42.840Z,100645.16
2022-09-27T13:52:30.131Z,100657.75
2022-09-27T13:54:58.910Z,100643.59
2022-09-27T13:57:37.483Z,100651.16
2022-09-27T14:00:07.769Z,100650.38
2022-09-27T14:02:42.766Z,100680.13
2022-09-27T14:05:20.407Z,100695.09
2022-09-27T14:07:49.917Z,100725.16
2022-09-27T14:10:21.271Z,100750.03
2022-09-27T14:12:50.413Z,100762.84
2022-09-27T14:15:27.304Z,100803.84
2022-09-27T14:17:55.286Z,100829.25
2022-09-27T14:20:39.855Z,100859.66
2022-09-27T14:23:13.475Z,100883.69
2022-09-27T14:25:46.010Z,100940.38
2022-09-27T14:28:28.996Z,100976.88
2022-09-27T14:31:05.928Z,101001.41
2022-09-27T14:33:34.317Z,101016.97
2022-09-27T14:36:23.718Z,101045.56
2022-09-27T14:38:50.568Z,101052.19
2022-09-27T14:41:17.231Z,101062.16
2022-09-27T14:43:46.073Z,101062.34
2022-09-27T14:46:27.913Z,101040.97
2022-09-27T14:48:55.703Z,101058.88
2022-09-27T14:51:31.279Z,101071.59
2022-09-27T14:54:05.498Z,101095.16
2022-09-27T14:56:39.747Z,101123.28
2022-09-27T14:59:16.255Z,101159.69
2022-09-27T15:01:53.260Z,101148.50
2022-09-27T15:04:23.537Z,101155.50
2022-09-27T15:06:50.532Z,101157.09
2022-09-27T15:09:18.453Z,101175.19
2022-09-27T15:11:49.406Z,101175.16
2022-09-27T15:14:19.870Z,101152.66
2022-09-27T15:16:48.513Z,101123.56
2022-09-27T15:19:27.036Z,101111.28
2022-09-27T15:21:53.769Z,101074.72
2022-09-27T15:24:40.615Z,101058.28
2022-09-27T15:27:22.162Z,101045.25
2022-09-27T15:29:53.645Z,100970.03
2022-09-27T15:32:23.596Z,100966.25
2022-09-27T15:34:50.527Z,100957.88
2022-09-27T15:37:33.582Z,100942.56
2022-09-27T15:40:20.561Z,100933.47
2022-09-27T15:42:57.883Z,100931.44
2022-09-27T15:45:28.020Z,100921.66
2022-09-27T15:47:54.421Z,100924.78
2022-09-27T15:50:26.950Z,100926.72
2022-09-27T15:52:57.087Z,100921.91
2022-09-27T15:55:26.777Z,100928.59
2022-09-27T15:58:00.082Z,100939.22
2022-09-27T16:00:27.011Z,100945.50
2022-09-27T16:02:56.948Z,100961.22
2022-09-27T16:05:23.910Z,100960.50
2022-09-27T16:07:51.346Z,100964.66
2022-09-27T16:10:26.038Z,100975.88
2022-09-27T16:12:52.814Z,100989.53
2022-09-27T16:15:19.242Z,100990.28
2022-09-27T16:17:45.688Z,101040.97
2022-09-27T16:20:23.134Z,101077.38
2022-09-27T16:22:50.126Z,101056.47
2022-09-27T16:25:16.524Z,100971.69
2022-09-27T16:27:43.117Z,100918.44
2022-09-27T16:30:10.147Z,100878.72
2022-09-27T16:32:48.063Z,100860.50
2022-09-27T16:35:16.550Z,100826.09
2022-09-27T16:37:43.478Z,100801.91
2022-09-27T16:40:11.456Z,100794.50
2022-09-27T16:42:38.438Z,100776.81
2022-09-27T16:45:11.035Z,100771.34
2022-09-27T16:47:39.197Z,100781.00
2022-09-27T16:50:24.685Z,100780.31
2022-09-27T16:52:52.468Z,100781.16
2022-09-27T16:55:20.879Z,100792.34
2022-09-27T16:57:47.827Z,100822.56
2022-09-27T17:00:14.847Z,100829.34
2022-09-27T17:02:41.413Z,100831.06
2022-09-27T17:05:07.876Z,100858.38
2022-09-27T17:07:34.361Z,100881.00
2022-09-27T17:10:00.766Z,100918.13
2022-09-27T17:12:27.192Z,100952.38
2022-09-27T17:14:53.822Z,100982.69
2022-09-27T17:17:20.239Z,101019.66
2022-09-27T17:19:48.391Z,101039.34
2022-09-27T17:22:14.848Z,101064.16
2022-09-27T17:24:41.265Z,101079.66
2022-09-27T17:27:07.888Z,101097.53
2022-09-27T17:29:34.400Z,101120.16
2022-09-27T17:32:00.898Z,101136.22
2022-09-27T17:34:28.345Z,101181.19
2022-09-27T17:36:55.035Z,101217.00
2022-09-27T17:39:22.226Z,101273.22
2022-09-27T17:41:49.844Z,101311.03
2022-09-27T17:44:18.520Z,101349.66
2022-09-27T17:46:46.116Z,101396.06
2022-09-27T17:49:32.799Z,101438.72
2022-09-27T17:51:59.589Z,101467.81
2022-09-27T17:54:27.813Z,101506.72
2022-09-27T17:56:56.200Z,101517.97
2022-09-27T17:59:22.952Z,101520.97
2022-09-27T18:01:49.564Z,101529.63
2022-09-27T18:04:18.626Z,101535.38
2022-09-27T18:06:46.960Z,101592.38
2022-09-27T18:09:16.155Z,101622.16
2022-09-27T18:11:44.099Z,101626.91
2022-09-27T18:14:11.105Z,101646.88
2022-09-27T18:16:42.842Z,101643.47
2022-09-27T18:19:12.971Z,101654.91
2022-09-27T18:21:39.691Z,101646.53
2022-09-27T18:24:07.003Z,101635.19
2022-09-27T18:26:39.137Z,101644.72
2022-09-27T18:29:18.525Z,101641.75
2022-09-27T18:31:48.652Z,101665.63
2022-09-27T18:34:16.475Z,101654.56
2022-09-27T18:36:44.567Z,101652.06
2022-09-27T18:39:15.602Z,101644.31
2022-09-27T18:41:42.228Z,101644.41
2022-09-27T18:44:12.443Z,101645.59
2022-09-27T18:46:39.406Z,101619.72
2022-09-27T18:49:08.932Z,101617.84
2022-09-27T18:51:37.579Z,101617.16
2022-09-27T18:54:12.576Z,101603.25
2022-09-27T18:56:39.537Z,101604.28
2022-09-27T18:59:08.538Z,101609.47
2022-09-27T19:01:44.966Z,101607.75
2022-09-27T19:04:21.536Z,101594.53
2022-09-27T19:06:50.549Z,101596.59
2022-09-27T19:09:17.262Z,101606.91
2022-09-27T19:11:44.255Z,101650.00
2022-09-27T19:14:19.551Z,101658.88
2022-09-27T19:16:47.368Z,101693.09
2022-09-27T19:19:15.261Z,101705.41
2022-09-27T19:21:41.727Z,101675.06
2022-09-27T19:24:08.154Z,101602.84
2022-09-27T19:26:34.575Z,101690.59
2022-09-27T19:29:01.737Z,101707.97
2022-09-27T19:31:29.563Z,101713.25
2022-09-27T19:33:59.938Z,101711.34
2022-09-27T19:36:27.778Z,101719.38
2022-09-27T19:38:56.227Z,101711.91
2022-09-27T19:41:22.639Z,101727.84
2022-09-27T19:43:53.243Z,101739.00
2022-09-27T19:46:20.840Z,101745.50
2022-09-27T19:48:48.441Z,101734.16
2022-09-27T19:51:16.154Z,101736.28
2022-09-27T19:53:42.978Z,101731.69
2022-09-27T19:56:10.766Z,101727.84
2022-09-27T19:58:39.117Z,101720.78
2022-09-27T20:01:07.351Z,101723.88
2022-09-27T20:03:35.571Z,101715.88
2022-09-27T20:06:03.391Z,101717.41
2022-09-27T20:08:30.646Z,101705.19
2022-09-27T20:11:14.407Z,101685.91
2022-09-27T20:13:41.090Z,101678.16
2022-09-27T20:16:19.423Z,101667.19
2022-09-27T20:19:04.259Z,101662.16
2022-09-27T20:21:32.712Z,101647.94
2022-09-27T20:24:02.048Z,101654.78
2022-09-27T20:26:31.473Z,101636.59
2022-09-27T20:28:59.611Z,101616.44
2022-09-27T20:31:28.693Z,101604.81
2022-09-27T20:33:55.687Z,101595.47
2022-09-27T20:36:23.174Z,101588.34
2022-09-27T20:38:57.131Z,101580.59
2022-09-27T20:41:26.203Z,101582.63
2022-09-27T20:43:54.665Z,101574.78
2022-09-27T20:46:22.569Z,101570.59
2022-09-27T20:48:57.837Z,101565.69
2022-09-27T20:51:25.779Z,101556.28
2022-09-27T20:53:52.330Z,101556.84
2022-09-27T20:56:27.511Z,101536.53
2022-09-27T20:58:55.738Z,101535.94
2022-09-27T21:01:24.464Z,101526.06
2022-09-27T21:03:56.771Z,101519.50
2022-09-27T21:06:24.062Z,101510.59
2022-09-27T21:08:51.462Z,101510.44
2022-09-27T21:11:18.890Z,101501.91
2022-09-27T21:13:46.070Z,101495.00
2022-09-27T21:16:18.724Z,101496.94
2022-09-27T21:18:45.855Z,101487.47
2022-09-27T21:21:14.090Z,101491.53
2022-09-27T21:23:44.770Z,101494.75
2022-09-27T21:26:17.148Z,101484.16
2022-09-27T21:28:55.365Z,101469.88
2022-09-27T21:31:23.489Z,101458.44
2022-09-27T21:33:54.050Z,101446.34
2022-09-27T21:36:22.340Z,101439.63
2022-09-27T21:38:48.962Z,101434.34
2022-09-27T21:41:16.271Z,101428.28
2022-09-27T21:43:44.797Z,101414.25
2022-09-27T21:46:16.807Z,101408.41
2022-09-27T21:48:45.706Z,101395.16
2022-09-27T21:51:15.275Z,101391.97
2022-09-27T21:53:43.859Z,101398.25
2022-09-27T21:56:11.846Z,101406.13
2022-09-27T21:58:40.720Z,101396.56
2022-09-27T22:01:17.189Z,101398.88
2022-09-27T22:03:46.094Z,101384.09
2022-09-27T22:06:15.332Z,101395.56
2022-09-27T22:08:42.132Z,101377.84
2022-09-27T22:11:08.954Z,101393.09
2022-09-27T22:13:36.034Z,101396.66
2022-09-27T22:16:07.449Z,101386.31
2022-09-27T22:18:35.306Z,101388.13
2022-09-27T22:21:03.343Z,101373.13
2022-09-27T22:23:29.780Z,101367.69
2022-09-27T22:25:57.186Z,101369.34
2022-09-27T22:28:24.548Z,101362.91
2022-09-27T22:30:51.131Z,101360.28
2022-09-27T22:33:17.886Z,101353.97
2022-09-27T22:35:48.365Z,101340.78
2022-09-27T22:38:15.383Z,101344.44
2022-09-27T22:40:42.218Z,101343.31
2022-09-27T22:43:08.659Z,101326.06
2022-09-27T22:45:35.067Z,101324.16
2022-09-27T22:48:01.755Z,101319.50
2022-09-27T22:50:28.216Z,101317.81
2022-09-27T22:52:54.619Z,101321.38
2022-09-27T22:55:21.006Z,101336.31
2022-09-27T22:57:48.226Z,101327.59
2022-09-27T23:00:14.759Z,101315.72
2022-09-27T23:02:41.201Z,101315.78
2022-09-27T23:05:08.087Z,101327.13
2022-09-27T23:07:34.523Z,101351.78
2022-09-27T23:10:00.891Z,101378.88
2022-09-27T23:12:27.267Z,101380.81
2022-09-27T23:14:53.746Z,101380.59
2022-09-27T23:17:20.335Z,101370.03
2022-09-27T23:19:46.728Z,101365.69
2022-09-27T23:22:13.133Z,101349.16
2022-09-27T23:24:39.539Z,101348.13
2022-09-27T23:27:24.444Z,101352.25
2022-09-27T23:29:50.908Z,101330.34
2022-09-27T23:32:17.291Z,101336.41
2022-09-27T23:34:43.721Z,101339.03
2022-09-27T23:37:10.150Z,101352.94
2022-09-27T23:39:36.593Z,101345.16
2022-09-27T23:42:03.269Z,101347.09
2022-09-27T23:44:29.714Z,101362.06
2022-09-27T23:47:00.217Z,101357.84
2022-09-27T23:49:27.822Z,101364.97
2022-09-27T23:51:55.442Z,101365.81
2022-09-27T23:54:21.959Z,101366.03
2022-09-27T23:56:49.335Z,101351.91
2022-09-27T23:59:17.001Z,101353.72
